GCTSLPMA

Guest
Details From GCTS - Tenerife Sur
To LPMA - Madeira
Flight Number -
Tags generated
Created
Modified
Stats Distance 281 nm / 521 km
Max Altitude 33,300 ft / 10,150 m
Waypoints 4
Social Downloads 1
Likes 0
Share VATSIM

Download

Looking for another format? Having issues loading an existing format? Contact us
Advertisement - Login to hide

Notes

Basic altitude profile: - Ascent Rate: 3100ft/min - Ascent Speed: 250kts - Cruise Altitude: 3700ft - Cruise Speed: 500kts - Descent Rate: 2100ft/min - Descent Speed: 250kts Options: - Use NATs: yes - Use PACOTS: yes - Use low airways: no - Use high airways: yes

Route

GCTS BRICK UN728 ORTIS LPMA

ID Type Via Altitude Latitude Longitude Leg Dist Tot Dist Heading (true) Name
O GCTS APT - 0 ft / 0 m 28.04448˚ -16.57249˚ - 0 nm - Tenerife Sur
BRICK FIX - 33,300 ft / 10,150 m 29.59137˚ -16.37289˚ 93 nm 93 nm 6° / 6° -
ORTIS FIX UN728 (AWY-HI) 24,500 ft / 7,468 m 31.40696˚ -16.55691˚ 109 nm 202 nm 355° / 355° -
O LPMA APT - 0 ft / 0 m 32.69770˚ -16.77445˚ 78 nm 281 nm 352° / 352° Madeira

Altitude Profile

Advertisement - Login to hide

Weather


0- 5 10 15 20 25 30 35+ Temperature / ° C

Clouds and Precipitation
Forecast for 2017-12-14 06:00 UTC. Updated 2 hours ago

Ground ~20,000 ft ~40,000 ft Winds

GCTS

Details ICAO GCTS (TFS)
Name Tenerife Sur
Region Canary Islands
Timezone Atlantic/Canary (UTC+0.0)
Stats Elevation 209 ft / 64 m (AMSL)
Location 28.044475° -16.572488°
Runways 1
Magnetic Variation 5.117° W

METAR

GCTS 140430Z 06020KT 9999 FEW030 17/09 Q1024 NOSIG

Decode

TAF

TAF GCTS 140200Z 1403/1503 06020KT 9999 FEW030 TX24/1414Z TN15/1406Z

Decode

Departure Runways

ID Width Length Bearing (true) Bearing (mag) Surface Threshold Offset Overrun Length
08 148 ft / 45 m 10,489 ft / 3,197 m 68.47° 73.59° Asphalt 0 ft / 0 m 0 ft / 0 m
26 148 ft / 45 m 10,489 ft / 3,197 m 248.49° 253.61° Asphalt 0 ft / 0 m 0 ft / 0 m

LPMA

Details ICAO LPMA (FNC)
Name Madeira
Region Portugal
Timezone Atlantic/Madeira (UTC+0.0)
Stats Elevation 192 ft / 59 m (AMSL)
Location 32.697704° -16.774449°
Runways 1
Magnetic Variation 4.982° W

METAR

LPMA 140430Z 35012KT 320V020 9999 SCT015 17/14 Q1028

Decode

TAF

TAF LPMA 132300Z 1400/1424 02012KT 9999 SCT015 PROB30 TEMPO 1400/1412 02015G25KT 6000 -RA BKN013

Decode

Destination Runways

ID Width Length Bearing (true) Bearing (mag) Surface Threshold Offset Overrun Length
05 141 ft / 43 m 8,683 ft / 2,647 m 42.98° 47.96° Asphalt 472 ft / 144 m 0 ft / 0 m
23 141 ft / 43 m 8,683 ft / 2,647 m 222.99° 227.97° Asphalt 466 ft / 142 m 0 ft / 0 m

Popular Alternatives